sensor_id;sensor_type;location;lat;lon;timestamp;temperature;humidity
21734;DHT22;11029;47.820;10.534;2023-04-30T00:02:12;10.20;76.40
21734;DHT22;11029;47.820;10.534;2023-04-30T00:04:39;10.20;76.10
21734;DHT22;11029;47.820;10.534;2023-04-30T00:07:06;10.20;76.80
21734;DHT22;11029;47.820;10.534;2023-04-30T00:09:34;10.20;76.60
21734;DHT22;11029;47.820;10.534;2023-04-30T00:12:00;10.20;76.60
21734;DHT22;11029;47.820;10.534;2023-04-30T00:14:27;10.10;77.00
21734;DHT22;11029;47.820;10.534;2023-04-30T00:16:54;10.00;77.50
21734;DHT22;11029;47.820;10.534;2023-04-30T00:19:20;10.00;77.90
21734;DHT22;11029;47.820;10.534;2023-04-30T00:21:47;9.90;77.60
21734;DHT22;11029;47.820;10.534;2023-04-30T00:24:14;9.80;78.10
21734;DHT22;11029;47.820;10.534;2023-04-30T00:26:41;9.80;78.60
21734;DHT22;11029;47.820;10.534;2023-04-30T00:29:10;9.80;78.70
21734;DHT22;11029;47.820;10.534;2023-04-30T00:31:36;9.70;78.70
21734;DHT22;11029;47.820;10.534;2023-04-30T00:34:03;9.70;79.00
21734;DHT22;11029;47.820;10.534;2023-04-30T00:36:30;9.80;79.10
21734;DHT22;11029;47.820;10.534;2023-04-30T00:38:57;9.90;78.70
21734;DHT22;11029;47.820;10.534;2023-04-30T00:41:24;9.90;78.50
21734;DHT22;11029;47.820;10.534;2023-04-30T00:43:51;9.90;78.20
21734;DHT22;11029;47.820;10.534;2023-04-30T00:46:18;9.90;78.50
21734;DHT22;11029;47.820;10.534;2023-04-30T00:48:45;9.90;78.50
21734;DHT22;11029;47.820;10.534;2023-04-30T00:51:12;9.90;78.30
21734;DHT22;11029;47.820;10.534;2023-04-30T00:53:39;9.80;78.60
21734;DHT22;11029;47.820;10.534;2023-04-30T00:56:08;9.80;78.70
21734;DHT22;11029;47.820;10.534;2023-04-30T00:58:35;9.80;78.80
21734;DHT22;11029;47.820;10.534;2023-04-30T01:01:03;9.80;78.80
21734;DHT22;11029;47.820;10.534;2023-04-30T01:03:29;9.90;78.90
21734;DHT22;11029;47.820;10.534;2023-04-30T01:05:56;9.90;78.50
21734;DHT22;11029;47.820;10.534;2023-04-30T01:08:23;10.00;78.30
21734;DHT22;11029;47.820;10.534;2023-04-30T01:13:48;9.90;78.20
21734;DHT22;11029;47.820;10.534;2023-04-30T01:16:27;10.00;78.00
21734;DHT22;11029;47.820;10.534;2023-04-30T01:19:08;9.90;77.50
21734;DHT22;11029;47.820;10.534;2023-04-30T01:21:38;9.90;78.20
21734;DHT22;11029;47.820;10.534;2023-04-30T01:24:23;9.80;78.20
21734;DHT22;11029;47.820;10.534;2023-04-30T01:30:10;9.80;77.80
21734;DHT22;11029;47.820;10.534;2023-04-30T01:32:38;9.80;78.40
21734;DHT22;11029;47.820;10.534;2023-04-30T01:35:05;9.80;78.30
21734;DHT22;11029;47.820;10.534;2023-04-30T01:37:56;9.80;78.70
21734;DHT22;11029;47.820;10.534;2023-04-30T01:40:50;9.80;78.50
21734;DHT22;11029;47.820;10.534;2023-04-30T01:46:26;9.60;78.60
21734;DHT22;11029;47.820;10.534;2023-04-30T01:51:41;9.60;78.60
21734;DHT22;11029;47.820;10.534;2023-04-30T01:54:24;9.60;78.80
21734;DHT22;11029;47.820;10.534;2023-04-30T01:57:06;9.50;79.00
21734;DHT22;11029;47.820;10.534;2023-04-30T01:59:38;9.60;78.80
21734;DHT22;11029;47.820;10.534;2023-04-30T02:02:05;9.60;79.00
21734;DHT22;11029;47.820;10.534;2023-04-30T02:04:32;9.50;79.50
21734;DHT22;11029;47.820;10.534;2023-04-30T02:06:59;9.50;79.20
21734;DHT22;11029;47.820;10.534;2023-04-30T02:09:26;9.50;79.30
21734;DHT22;11029;47.820;10.534;2023-04-30T02:11:53;9.60;79.10
21734;DHT22;11029;47.820;10.534;2023-04-30T02:14:20;9.60;78.80
21734;DHT22;11029;47.820;10.534;2023-04-30T02:16:51;9.60;78.80
21734;DHT22;11029;47.820;10.534;2023-04-30T02:19:17;9.60;78.90
21734;DHT22;11029;47.820;10.534;2023-04-30T02:21:44;9.60;78.90
21734;DHT22;11029;47.820;10.534;2023-04-30T02:24:11;9.50;78.90
21734;DHT22;11029;47.820;10.534;2023-04-30T02:26:38;9.40;79.30
21734;DHT22;11029;47.820;10.534;2023-04-30T02:29:04;9.30;79.80
21734;DHT22;11029;47.820;10.534;2023-04-30T02:31:31;9.30;79.90
21734;DHT22;11029;47.820;10.534;2023-04-30T02:33:58;9.30;79.70
21734;DHT22;11029;47.820;10.534;2023-04-30T02:36:25;9.30;79.70
21734;DHT22;11029;47.820;10.534;2023-04-30T02:38:51;9.30;79.70
21734;DHT22;11029;47.820;10.534;2023-04-30T02:41:18;9.30;79.50
21734;DHT22;11029;47.820;10.534;2023-04-30T02:43:45;9.30;79.30
21734;DHT22;11029;47.820;10.534;2023-04-30T02:46:11;9.30;79.20
21734;DHT22;11029;47.820;10.534;2023-04-30T02:48:38;9.10;79.90
21734;DHT22;11029;47.820;10.534;2023-04-30T02:51:05;9.20;80.20
21734;DHT22;11029;47.820;10.534;2023-04-30T02:53:32;9.20;79.60
21734;DHT22;11029;47.820;10.534;2023-04-30T02:55:58;9.10;79.70
21734;DHT22;11029;47.820;10.534;2023-04-30T02:58:25;9.10;79.50
21734;DHT22;11029;47.820;10.534;2023-04-30T03:00:52;9.10;79.50
21734;DHT22;11029;47.820;10.534;2023-04-30T03:03:19;9.10;79.20
21734;DHT22;11029;47.820;10.534;2023-04-30T03:05:46;9.10;79.30
21734;DHT22;11029;47.820;10.534;2023-04-30T03:08:13;9.10;79.60
21734;DHT22;11029;47.820;10.534;2023-04-30T03:10:39;9.00;79.70
21734;DHT22;11029;47.820;10.534;2023-04-30T03:13:06;9.00;79.70
21734;DHT22;11029;47.820;10.534;2023-04-30T03:15:33;9.10;79.60
21734;DHT22;11029;47.820;10.534;2023-04-30T03:18:00;9.10;79.50
21734;DHT22;11029;47.820;10.534;2023-04-30T03:20:26;9.10;79.40
21734;DHT22;11029;47.820;10.534;2023-04-30T03:22:53;9.10;79.50
21734;DHT22;11029;47.820;10.534;2023-04-30T03:25:20;9.20;79.40
21734;DHT22;11029;47.820;10.534;2023-04-30T03:27:47;9.10;79.70
21734;DHT22;11029;47.820;10.534;2023-04-30T03:30:14;9.20;79.70
21734;DHT22;11029;47.820;10.534;2023-04-30T03:32:40;9.20;79.50
21734;DHT22;11029;47.820;10.534;2023-04-30T03:35:07;9.20;79.80
21734;DHT22;11029;47.820;10.534;2023-04-30T03:37:34;9.20;79.60
21734;DHT22;11029;47.820;10.534;2023-04-30T03:40:01;9.20;79.10
21734;DHT22;11029;47.820;10.534;2023-04-30T03:42:29;9.20;79.80
21734;DHT22;11029;47.820;10.534;2023-04-30T03:44:56;9.20;79.50
21734;DHT22;11029;47.820;10.534;2023-04-30T03:47:23;9.20;79.90
21734;DHT22;11029;47.820;10.534;2023-04-30T03:49:49;9.20;80.10
21734;DHT22;11029;47.820;10.534;2023-04-30T03:52:21;9.30;80.00
21734;DHT22;11029;47.820;10.534;2023-04-30T03:54:49;9.30;79.60
21734;DHT22;11029;47.820;10.534;2023-04-30T03:57:16;9.20;79.80
21734;DHT22;11029;47.820;10.534;2023-04-30T03:59:43;9.20;79.60
21734;DHT22;11029;47.820;10.534;2023-04-30T04:02:09;9.30;79.50
21734;DHT22;11029;47.820;10.534;2023-04-30T04:04:37;9.20;79.70
21734;DHT22;11029;47.820;10.534;2023-04-30T04:07:03;9.20;80.20
21734;DHT22;11029;47.820;10.534;2023-04-30T04:09:33;9.10;80.40
21734;DHT22;11029;47.820;10.534;2023-04-30T04:12:02;9.10;80.50
21734;DHT22;11029;47.820;10.534;2023-04-30T04:14:29;9.10;80.70
21734;DHT22;11029;47.820;10.534;2023-04-30T04:16:55;9.00;80.70
21734;DHT22;11029;47.820;10.534;2023-04-30T04:19:31;9.00;81.80
21734;DHT22;11029;47.820;10.534;2023-04-30T04:21:58;9.00;81.20
21734;DHT22;11029;47.820;10.534;2023-04-30T04:24:25;8.90;81.10
21734;DHT22;11029;47.820;10.534;2023-04-30T04:26:52;8.90;81.30
21734;DHT22;11029;47.820;10.534;2023-04-30T04:29:19;8.90;81.90
21734;DHT22;11029;47.820;10.534;2023-04-30T04:31:46;8.90;81.40
21734;DHT22;11029;47.820;10.534;2023-04-30T04:34:15;8.90;81.70
21734;DHT22;11029;47.820;10.534;2023-04-30T04:36:42;8.90;82.50
21734;DHT22;11029;47.820;10.534;2023-04-30T04:39:08;8.90;81.40
21734;DHT22;11029;47.820;10.534;2023-04-30T04:41:35;8.80;81.70
21734;DHT22;11029;47.820;10.534;2023-04-30T04:44:03;8.80;81.90
21734;DHT22;11029;47.820;10.534;2023-04-30T04:46:30;8.80;82.10
21734;DHT22;11029;47.820;10.534;2023-04-30T04:48:57;8.90;81.70
21734;DHT22;11029;47.820;10.534;2023-04-30T04:51:24;8.90;81.80
21734;DHT22;11029;47.820;10.534;2023-04-30T04:53:51;8.80;81.90
21734;DHT22;11029;47.820;10.534;2023-04-30T04:56:18;8.90;81.90
21734;DHT22;11029;47.820;10.534;2023-04-30T04:58:46;8.90;81.70
21734;DHT22;11029;47.820;10.534;2023-04-30T05:01:13;8.90;82.00
21734;DHT22;11029;47.820;10.534;2023-04-30T05:03:40;8.90;81.90
21734;DHT22;11029;47.820;10.534;2023-04-30T05:06:07;8.90;81.70
21734;DHT22;11029;47.820;10.534;2023-04-30T05:08:34;8.90;81.60
21734;DHT22;11029;47.820;10.534;2023-04-30T05:11:01;8.90;81.60
21734;DHT22;11029;47.820;10.534;2023-04-30T05:13:28;8.80;81.40
21734;DHT22;11029;47.820;10.534;2023-04-30T05:15:55;8.80;81.60
21734;DHT22;11029;47.820;10.534;2023-04-30T05:18:22;8.80;81.50
21734;DHT22;11029;47.820;10.534;2023-04-30T05:20:49;8.80;81.60
21734;DHT22;11029;47.820;10.534;2023-04-30T05:23:16;8.90;81.50
21734;DHT22;11029;47.820;10.534;2023-04-30T05:25:42;8.90;81.50
21734;DHT22;11029;47.820;10.534;2023-04-30T05:28:09;9.00;80.90
21734;DHT22;11029;47.820;10.534;2023-04-30T05:30:36;9.00;81.00
21734;DHT22;11029;47.820;10.534;2023-04-30T05:33:03;9.00;81.20
21734;DHT22;11029;47.820;10.534;2023-04-30T05:35:29;9.10;80.90
21734;DHT22;11029;47.820;10.534;2023-04-30T05:37:57;9.20;80.00
21734;DHT22;11029;47.820;10.534;2023-04-30T05:40:23;9.10;79.80
21734;DHT22;11029;47.820;10.534;2023-04-30T05:42:50;9.10;80.30
21734;DHT22;11029;47.820;10.534;2023-04-30T05:45:17;9.20;79.90
21734;DHT22;11029;47.820;10.534;2023-04-30T05:47:44;9.20;79.80
21734;DHT22;11029;47.820;10.534;2023-04-30T05:50:11;9.10;79.40
21734;DHT22;11029;47.820;10.534;2023-04-30T05:52:37;9.10;80.20
21734;DHT22;11029;47.820;10.534;2023-04-30T05:55:05;9.10;79.30
21734;DHT22;11029;47.820;10.534;2023-04-30T05:57:32;9.10;80.10
21734;DHT22;11029;47.820;10.534;2023-04-30T05:59:58;9.20;79.40
21734;DHT22;11029;47.820;10.534;2023-04-30T06:02:25;9.30;79.80
21734;DHT22;11029;47.820;10.534;2023-04-30T06:04:52;9.50;78.80
21734;DHT22;11029;47.820;10.534;2023-04-30T06:07:19;9.60;77.90
21734;DHT22;11029;47.820;10.534;2023-04-30T06:09:45;9.70;77.60
21734;DHT22;11029;47.820;10.534;2023-04-30T06:12:12;9.90;76.90
21734;DHT22;11029;47.820;10.534;2023-04-30T06:14:39;10.10;76.20
21734;DHT22;11029;47.820;10.534;2023-04-30T06:17:08;10.10;75.60
21734;DHT22;11029;47.820;10.534;2023-04-30T06:19:35;10.20;75.50
21734;DHT22;11029;47.820;10.534;2023-04-30T06:22:04;10.30;75.50
21734;DHT22;11029;47.820;10.534;2023-04-30T06:24:31;10.30;75.30
21734;DHT22;11029;47.820;10.534;2023-04-30T06:26:58;10.40;74.70
21734;DHT22;11029;47.820;10.534;2023-04-30T06:29:25;10.40;74.40
21734;DHT22;11029;47.820;10.534;2023-04-30T06:31:52;10.40;74.90
21734;DHT22;11029;47.820;10.534;2023-04-30T06:34:19;10.50;74.50
21734;DHT22;11029;47.820;10.534;2023-04-30T06:36:46;10.50;74.60
21734;DHT22;11029;47.820;10.534;2023-04-30T06:39:14;10.50;74.00
21734;DHT22;11029;47.820;10.534;2023-04-30T06:41:41;10.50;74.40
21734;DHT22;11029;47.820;10.534;2023-04-30T06:44:09;10.70;73.30
21734;DHT22;11029;47.820;10.534;2023-04-30T06:46:35;10.80;72.50
21734;DHT22;11029;47.820;10.534;2023-04-30T06:49:02;10.90;72.30
21734;DHT22;11029;47.820;10.534;2023-04-30T06:51:29;11.10;72.40
21734;DHT22;11029;47.820;10.534;2023-04-30T06:53:56;11.20;72.40
21734;DHT22;11029;47.820;10.534;2023-04-30T06:56:23;11.30;72.30
21734;DHT22;11029;47.820;10.534;2023-04-30T06:58:50;11.30;71.10
21734;DHT22;11029;47.820;10.534;2023-04-30T07:01:17;11.20;71.10
21734;DHT22;11029;47.820;10.534;2023-04-30T07:03:44;11.20;71.60
21734;DHT22;11029;47.820;10.534;2023-04-30T07:06:11;11.10;71.40
21734;DHT22;11029;47.820;10.534;2023-04-30T07:08:37;11.00;72.10
21734;DHT22;11029;47.820;10.534;2023-04-30T07:11:06;11.10;71.90
21734;DHT22;11029;47.820;10.534;2023-04-30T07:13:33;11.20;71.20
21734;DHT22;11029;47.820;10.534;2023-04-30T07:16:00;11.20;71.60
21734;DHT22;11029;47.820;10.534;2023-04-30T07:18:27;11.30;71.80
21734;DHT22;11029;47.820;10.534;2023-04-30T07:20:54;11.30;71.00
21734;DHT22;11029;47.820;10.534;2023-04-30T07:23:20;11.40;71.10
21734;DHT22;11029;47.820;10.534;2023-04-30T07:25:47;11.60;71.20
21734;DHT22;11029;47.820;10.534;2023-04-30T07:28:14;11.80;70.40
21734;DHT22;11029;47.820;10.534;2023-04-30T07:30:41;11.80;70.60
21734;DHT22;11029;47.820;10.534;2023-04-30T07:33:08;12.00;70.50
21734;DHT22;11029;47.820;10.534;2023-04-30T07:35:35;12.10;69.80
21734;DHT22;11029;47.820;10.534;2023-04-30T07:38:02;12.10;69.20
21734;DHT22;11029;47.820;10.534;2023-04-30T07:40:30;12.00;69.00
21734;DHT22;11029;47.820;10.534;2023-04-30T07:43:02;11.90;69.60
21734;DHT22;11029;47.820;10.534;2023-04-30T07:45:30;12.00;69.90
21734;DHT22;11029;47.820;10.534;2023-04-30T07:47:57;12.20;69.10
21734;DHT22;11029;47.820;10.534;2023-04-30T07:50:24;12.60;69.20
21734;DHT22;11029;47.820;10.534;2023-04-30T07:52:50;12.70;67.30
21734;DHT22;11029;47.820;10.534;2023-04-30T07:55:17;12.80;67.20
21734;DHT22;11029;47.820;10.534;2023-04-30T07:57:44;13.00;66.60
21734;DHT22;11029;47.820;10.534;2023-04-30T08:00:11;13.10;65.60
21734;DHT22;11029;47.820;10.534;2023-04-30T08:02:39;13.30;65.40
21734;DHT22;11029;47.820;10.534;2023-04-30T08:05:06;13.50;65.00
21734;DHT22;11029;47.820;10.534;2023-04-30T08:07:33;13.70;64.00
21734;DHT22;11029;47.820;10.534;2023-04-30T08:10:00;13.80;63.70
21734;DHT22;11029;47.820;10.534;2023-04-30T08:12:26;13.90;62.10
21734;DHT22;11029;47.820;10.534;2023-04-30T08:15:01;13.80;61.50
21734;DHT22;11029;47.820;10.534;2023-04-30T08:17:30;14.00;61.50
21734;DHT22;11029;47.820;10.534;2023-04-30T08:19:57;14.00;62.10
21734;DHT22;11029;47.820;10.534;2023-04-30T08:22:24;14.10;59.80
21734;DHT22;11029;47.820;10.534;2023-04-30T08:24:51;14.10;58.70
21734;DHT22;11029;47.820;10.534;2023-04-30T08:27:17;14.10;58.20
21734;DHT22;11029;47.820;10.534;2023-04-30T08:29:44;13.90;58.40
21734;DHT22;11029;47.820;10.534;2023-04-30T08:32:11;13.90;59.00
21734;DHT22;11029;47.820;10.534;2023-04-30T08:34:38;14.00;59.10
21734;DHT22;11029;47.820;10.534;2023-04-30T08:37:06;14.00;58.50
21734;DHT22;11029;47.820;10.534;2023-04-30T08:39:33;13.90;58.70
21734;DHT22;11029;47.820;10.534;2023-04-30T08:42:01;13.80;59.50
21734;DHT22;11029;47.820;10.534;2023-04-30T08:44:30;13.60;59.40
21734;DHT22;11029;47.820;10.534;2023-04-30T08:46:57;13.60;60.30
21734;DHT22;11029;47.820;10.534;2023-04-30T08:49:25;13.60;60.50
21734;DHT22;11029;47.820;10.534;2023-04-30T08:51:53;13.60;61.20
21734;DHT22;11029;47.820;10.534;2023-04-30T08:54:21;13.70;60.20
21734;DHT22;11029;47.820;10.534;2023-04-30T08:56:49;13.50;59.30
21734;DHT22;11029;47.820;10.534;2023-04-30T08:59:17;13.40;60.10
21734;DHT22;11029;47.820;10.534;2023-04-30T09:01:44;13.30;60.20
21734;DHT22;11029;47.820;10.534;2023-04-30T09:04:11;13.30;60.30
21734;DHT22;11029;47.820;10.534;2023-04-30T09:06:38;13.50;59.70
21734;DHT22;11029;47.820;10.534;2023-04-30T09:09:12;13.70;58.80
21734;DHT22;11029;47.820;10.534;2023-04-30T09:11:39;13.70;58.30
21734;DHT22;11029;47.820;10.534;2023-04-30T09:14:06;13.40;59.50
21734;DHT22;11029;47.820;10.534;2023-04-30T09:16:50;13.60;61.00
21734;DHT22;11029;47.820;10.534;2023-04-30T09:19:26;13.90;61.40
21734;DHT22;11029;47.820;10.534;2023-04-30T09:21:53;14.30;60.90
21734;DHT22;11029;47.820;10.534;2023-04-30T09:24:20;14.50;59.70
21734;DHT22;11029;47.820;10.534;2023-04-30T09:26:47;14.40;59.60
21734;DHT22;11029;47.820;10.534;2023-04-30T09:29:15;14.50;59.40
21734;DHT22;11029;47.820;10.534;2023-04-30T09:31:46;14.70;59.40
21734;DHT22;11029;47.820;10.534;2023-04-30T09:34:14;14.70;58.20
21734;DHT22;11029;47.820;10.534;2023-04-30T09:36:53;14.70;58.30
21734;DHT22;11029;47.820;10.534;2023-04-30T09:39:20;14.70;56.50
21734;DHT22;11029;47.820;10.534;2023-04-30T09:41:49;14.80;58.20
21734;DHT22;11029;47.820;10.534;2023-04-30T09:44:29;14.80;57.90
21734;DHT22;11029;47.820;10.534;2023-04-30T09:46:57;14.80;57.20
21734;DHT22;11029;47.820;10.534;2023-04-30T09:49:24;15.00;55.80
21734;DHT22;11029;47.820;10.534;2023-04-30T09:51:59;14.70;56.90
21734;DHT22;11029;47.820;10.534;2023-04-30T09:54:30;14.50;56.50
21734;DHT22;11029;47.820;10.534;2023-04-30T09:56:59;14.30;57.80
21734;DHT22;11029;47.820;10.534;2023-04-30T09:59:31;14.30;58.00
21734;DHT22;11029;47.820;10.534;2023-04-30T10:02:02;14.50;58.10
21734;DHT22;11029;47.820;10.534;2023-04-30T10:04:33;14.60;58.00
21734;DHT22;11029;47.820;10.534;2023-04-30T10:07:25;14.70;58.10
21734;DHT22;11029;47.820;10.534;2023-04-30T10:10:09;14.80;57.20
21734;DHT22;11029;47.820;10.534;2023-04-30T10:12:42;14.60;57.30
21734;DHT22;11029;47.820;10.534;2023-04-30T10:15:16;14.60;57.30
21734;DHT22;11029;47.820;10.534;2023-04-30T10:17:49;14.60;56.40
21734;DHT22;11029;47.820;10.534;2023-04-30T10:20:16;14.60;56.90
21734;DHT22;11029;47.820;10.534;2023-04-30T10:22:46;14.40;57.40
21734;DHT22;11029;47.820;10.534;2023-04-30T10:25:14;14.70;57.30
21734;DHT22;11029;47.820;10.534;2023-04-30T10:27:42;14.90;57.00
21734;DHT22;11029;47.820;10.534;2023-04-30T10:30:09;15.20;56.90
21734;DHT22;11029;47.820;10.534;2023-04-30T10:32:44;15.30;55.40
21734;DHT22;11029;47.820;10.534;2023-04-30T10:35:25;15.30;56.30
21734;DHT22;11029;47.820;10.534;2023-04-30T10:40:38;15.20;55.20
21734;DHT22;11029;47.820;10.534;2023-04-30T10:43:05;15.10;55.70
21734;DHT22;11029;47.820;10.534;2023-04-30T10:45:36;15.20;55.80
21734;DHT22;11029;47.820;10.534;2023-04-30T10:48:06;15.30;54.90
21734;DHT22;11029;47.820;10.534;2023-04-30T10:50:39;15.40;55.70
21734;DHT22;11029;47.820;10.534;2023-04-30T10:53:16;15.50;55.50
21734;DHT22;11029;47.820;10.534;2023-04-30T10:56:02;15.40;55.70
21734;DHT22;11029;47.820;10.534;2023-04-30T10:58:37;15.30;56.30
21734;DHT22;11029;47.820;10.534;2023-04-30T11:01:09;15.30;57.10
21734;DHT22;11029;47.820;10.534;2023-04-30T11:03:39;15.20;56.10
21734;DHT22;11029;47.820;10.534;2023-04-30T11:06:13;15.00;56.50
21734;DHT22;11029;47.820;10.534;2023-04-30T11:08:44;14.90;56.50
21734;DHT22;11029;47.820;10.534;2023-04-30T11:11:16;14.90;56.60
21734;DHT22;11029;47.820;10.534;2023-04-30T11:13:44;14.80;57.60
21734;DHT22;11029;47.820;10.534;2023-04-30T11:16:12;14.70;57.80
21734;DHT22;11029;47.820;10.534;2023-04-30T11:18:44;14.70;57.30
21734;DHT22;11029;47.820;10.534;2023-04-30T11:21:12;14.70;56.90
21734;DHT22;11029;47.820;10.534;2023-04-30T11:23:42;14.80;57.60
21734;DHT22;11029;47.820;10.534;2023-04-30T11:26:09;14.80;56.30
21734;DHT22;11029;47.820;10.534;2023-04-30T11:28:37;14.70;56.80
21734;DHT22;11029;47.820;10.534;2023-04-30T11:31:04;14.70;57.30
21734;DHT22;11029;47.820;10.534;2023-04-30T11:33:32;14.70;57.50
21734;DHT22;11029;47.820;10.534;2023-04-30T11:36:00;14.70;56.80
21734;DHT22;11029;47.820;10.534;2023-04-30T11:38:30;14.70;56.80
21734;DHT22;11029;47.820;10.534;2023-04-30T11:41:00;14.80;56.70
21734;DHT22;11029;47.820;10.534;2023-04-30T11:43:29;14.90;56.40
21734;DHT22;11029;47.820;10.534;2023-04-30T11:46:06;14.90;56.80
21734;DHT22;11029;47.820;10.534;2023-04-30T11:48:38;15.00;56.10
21734;DHT22;11029;47.820;10.534;2023-04-30T11:51:17;15.10;56.80
21734;DHT22;11029;47.820;10.534;2023-04-30T11:53:49;15.10;56.20
21734;DHT22;11029;47.820;10.534;2023-04-30T11:56:20;15.10;56.20
21734;DHT22;11029;47.820;10.534;2023-04-30T11:58:49;15.20;55.60
21734;DHT22;11029;47.820;10.534;2023-04-30T12:01:16;15.20;55.50
21734;DHT22;11029;47.820;10.534;2023-04-30T12:03:45;15.20;55.90
21734;DHT22;11029;47.820;10.534;2023-04-30T12:06:23;15.20;55.60
21734;DHT22;11029;47.820;10.534;2023-04-30T12:08:54;15.40;56.10
21734;DHT22;11029;47.820;10.534;2023-04-30T12:11:23;15.50;54.80
21734;DHT22;11029;47.820;10.534;2023-04-30T12:14:11;15.60;55.40
21734;DHT22;11029;47.820;10.534;2023-04-30T12:16:46;15.80;55.00
21734;DHT22;11029;47.820;10.534;2023-04-30T12:19:17;15.80;54.70
21734;DHT22;11029;47.820;10.534;2023-04-30T12:21:45;15.90;53.80
21734;DHT22;11029;47.820;10.534;2023-04-30T12:24:14;15.90;54.00
21734;DHT22;11029;47.820;10.534;2023-04-30T12:26:41;16.00;53.60
21734;DHT22;11029;47.820;10.534;2023-04-30T12:29:10;16.10;53.80
21734;DHT22;11029;47.820;10.534;2023-04-30T12:31:41;16.20;54.30
21734;DHT22;11029;47.820;10.534;2023-04-30T12:34:10;16.20;53.20
21734;DHT22;11029;47.820;10.534;2023-04-30T12:36:39;16.10;53.70
21734;DHT22;11029;47.820;10.534;2023-04-30T12:39:10;16.00;53.70
21734;DHT22;11029;47.820;10.534;2023-04-30T12:41:45;16.20;54.10
21734;DHT22;11029;47.820;10.534;2023-04-30T12:46:46;16.20;53.30
21734;DHT22;11029;47.820;10.534;2023-04-30T12:49:26;15.80;53.80
21734;DHT22;11029;47.820;10.534;2023-04-30T12:52:00;15.60;54.20
21734;DHT22;11029;47.820;10.534;2023-04-30T12:54:32;15.60;55.00
21734;DHT22;11029;47.820;10.534;2023-04-30T12:59:35;16.00;54.20
21734;DHT22;11029;47.820;10.534;2023-04-30T13:02:13;16.00;53.20
21734;DHT22;11029;47.820;10.534;2023-04-30T13:04:41;16.00;53.80
21734;DHT22;11029;47.820;10.534;2023-04-30T13:07:08;15.90;54.00
21734;DHT22;11029;47.820;10.534;2023-04-30T13:09:36;15.80;54.00
21734;DHT22;11029;47.820;10.534;2023-04-30T13:12:03;15.70;54.50
21734;DHT22;11029;47.820;10.534;2023-04-30T13:14:31;15.60;54.10
21734;DHT22;11029;47.820;10.534;2023-04-30T13:16:58;15.60;54.20
21734;DHT22;11029;47.820;10.534;2023-04-30T13:19:25;15.60;54.20
21734;DHT22;11029;47.820;10.534;2023-04-30T13:21:52;15.50;54.20
21734;DHT22;11029;47.820;10.534;2023-04-30T13:24:19;15.30;54.40
21734;DHT22;11029;47.820;10.534;2023-04-30T13:26:45;15.20;55.00
21734;DHT22;11029;47.820;10.534;2023-04-30T13:29:12;15.20;54.60
21734;DHT22;11029;47.820;10.534;2023-04-30T13:31:39;15.20;54.90
21734;DHT22;11029;47.820;10.534;2023-04-30T13:34:08;15.30;54.70
21734;DHT22;11029;47.820;10.534;2023-04-30T13:36:35;15.60;54.50
21734;DHT22;11029;47.820;10.534;2023-04-30T13:39:02;15.70;54.80
21734;DHT22;11029;47.820;10.534;2023-04-30T13:41:30;16.30;54.20
21734;DHT22;11029;47.820;10.534;2023-04-30T13:43:56;16.90;52.70
21734;DHT22;11029;47.820;10.534;2023-04-30T13:46:25;17.10;52.30
21734;DHT22;11029;47.820;10.534;2023-04-30T13:48:52;17.30;51.10
21734;DHT22;11029;47.820;10.534;2023-04-30T13:51:19;17.40;50.80
21734;DHT22;11029;47.820;10.534;2023-04-30T13:53:45;17.10;50.80
21734;DHT22;11029;47.820;10.534;2023-04-30T13:56:12;16.90;50.90
21734;DHT22;11029;47.820;10.534;2023-04-30T13:58:40;16.70;51.80
21734;DHT22;11029;47.820;10.534;2023-04-30T14:01:07;16.70;52.00
21734;DHT22;11029;47.820;10.534;2023-04-30T14:03:35;16.80;52.00
21734;DHT22;11029;47.820;10.534;2023-04-30T14:06:03;17.00;51.80
21734;DHT22;11029;47.820;10.534;2023-04-30T14:08:29;17.20;51.60
21734;DHT22;11029;47.820;10.534;2023-04-30T14:10:57;17.00;51.30
21734;DHT22;11029;47.820;10.534;2023-04-30T14:13:24;16.70;51.40
21734;DHT22;11029;47.820;10.534;2023-04-30T14:15:51;16.40;51.50
21734;DHT22;11029;47.820;10.534;2023-04-30T14:18:17;16.00;52.40
21734;DHT22;11029;47.820;10.534;2023-04-30T14:20:49;15.80;53.80
21734;DHT22;11029;47.820;10.534;2023-04-30T14:23:16;15.80;53.70
21734;DHT22;11029;47.820;10.534;2023-04-30T14:25:43;15.90;53.80
21734;DHT22;11029;47.820;10.534;2023-04-30T14:28:10;16.20;53.60
21734;DHT22;11029;47.820;10.534;2023-04-30T14:30:37;16.60;52.30
21734;DHT22;11029;47.820;10.534;2023-04-30T14:33:04;16.60;51.90
21734;DHT22;11029;47.820;10.534;2023-04-30T14:35:32;16.40;51.90
21734;DHT22;11029;47.820;10.534;2023-04-30T14:37:59;16.30;52.50
21734;DHT22;11029;47.820;10.534;2023-04-30T14:40:25;16.10;52.70
21734;DHT22;11029;47.820;10.534;2023-04-30T14:42:52;15.80;53.60
21734;DHT22;11029;47.820;10.534;2023-04-30T14:45:19;15.80;54.40
21734;DHT22;11029;47.820;10.534;2023-04-30T14:47:46;15.60;54.60
21734;DHT22;11029;47.820;10.534;2023-04-30T14:50:13;15.50;55.10
21734;DHT22;11029;47.820;10.534;2023-04-30T14:52:40;15.30;54.90
21734;DHT22;11029;47.820;10.534;2023-04-30T14:55:07;15.20;55.10
21734;DHT22;11029;47.820;10.534;2023-04-30T14:57:34;15.10;55.30
21734;DHT22;11029;47.820;10.534;2023-04-30T15:00:02;15.10;55.40
21734;DHT22;11029;47.820;10.534;2023-04-30T15:02:29;15.00;55.40
21734;DHT22;11029;47.820;10.534;2023-04-30T15:08:36;15.20;55.80
21734;DHT22;11029;47.820;10.534;2023-04-30T15:11:03;15.20;55.40
21734;DHT22;11029;47.820;10.534;2023-04-30T15:13:32;15.20;55.80
21734;DHT22;11029;47.820;10.534;2023-04-30T15:15:59;15.10;55.40
21734;DHT22;11029;47.820;10.534;2023-04-30T15:18:26;15.10;55.00
21734;DHT22;11029;47.820;10.534;2023-04-30T15:20:52;15.10;55.00
21734;DHT22;11029;47.820;10.534;2023-04-30T15:23:19;15.00;55.30
21734;DHT22;11029;47.820;10.534;2023-04-30T15:25:47;14.90;55.70
21734;DHT22;11029;47.820;10.534;2023-04-30T15:28:14;14.90;55.20
21734;DHT22;11029;47.820;10.534;2023-04-30T15:30:41;15.00;55.70
21734;DHT22;11029;47.820;10.534;2023-04-30T15:33:08;15.00;55.30
21734;DHT22;11029;47.820;10.534;2023-04-30T15:35:35;15.10;55.60
21734;DHT22;11029;47.820;10.534;2023-04-30T15:38:02;15.20;55.30
21734;DHT22;11029;47.820;10.534;2023-04-30T15:40:28;15.10;55.10
21734;DHT22;11029;47.820;10.534;2023-04-30T15:42:55;15.10;55.40
21734;DHT22;11029;47.820;10.534;2023-04-30T15:45:22;15.20;54.30
21734;DHT22;11029;47.820;10.534;2023-04-30T15:47:51;15.10;53.90
21734;DHT22;11029;47.820;10.534;2023-04-30T15:50:17;15.10;54.10
21734;DHT22;11029;47.820;10.534;2023-04-30T15:52:44;15.10;54.80
21734;DHT22;11029;47.820;10.534;2023-04-30T15:55:11;15.00;54.80